createdAt,value
2022-10-02T00:02:14.634Z,16.11
2022-10-02T00:05:14.254Z,16.15
2022-10-02T00:07:46.342Z,16.03
2022-10-02T00:10:47.084Z,16.09
2022-10-02T00:13:23.323Z,16.05
2022-10-02T00:15:50.748Z,15.98
2022-10-02T00:18:22.455Z,15.96
2022-10-02T00:21:09.849Z,15.93
2022-10-02T00:23:40.327Z,15.88
2022-10-02T00:26:20.087Z,15.91
2022-10-02T00:29:07.399Z,15.84
2022-10-02T00:31:47.883Z,15.82
2022-10-02T00:34:32.364Z,15.74
2022-10-02T00:37:24.823Z,15.64
2022-10-02T00:39:55.834Z,15.64
2022-10-02T00:43:11.178Z,15.73
2022-10-02T00:46:16.046Z,15.61
2022-10-02T00:49:10.776Z,15.61
2022-10-02T00:51:48.186Z,15.43
2022-10-02T00:54:38.376Z,15.44
2022-10-02T00:57:11.683Z,15.41
2022-10-02T00:59:51.422Z,15.42
2022-10-02T01:02:24.098Z,15.39
2022-10-02T01:04:52.929Z,15.31
2022-10-02T01:07:20.812Z,15.34
2022-10-02T01:09:47.447Z,15.33
2022-10-02T01:12:14.984Z,15.67
2022-10-02T01:14:41.525Z,15.43
2022-10-02T01:17:23.853Z,15.49
2022-10-02T01:19:50.848Z,15.38
2022-10-02T01:22:56.415Z,15.50
2022-10-02T01:25:23.244Z,15.42
2022-10-02T01:27:51.382Z,15.43
2022-10-02T01:30:20.610Z,15.45
2022-10-02T01:32:57.320Z,15.52
2022-10-02T01:35:31.813Z,15.50
2022-10-02T01:38:00.437Z,15.47
2022-10-02T01:40:30.328Z,15.48
2022-10-02T01:43:01.340Z,15.50
2022-10-02T01:45:49.768Z,15.60
2022-10-02T01:48:29.652Z,15.54
2022-10-02T01:51:20.353Z,15.61
2022-10-02T01:53:54.057Z,15.52
2022-10-02T01:56:29.673Z,15.53
2022-10-02T01:59:19.259Z,15.52
2022-10-02T02:01:58.539Z,15.55
2022-10-02T02:04:29.773Z,15.56
2022-10-02T02:07:15.257Z,15.62
2022-10-02T02:09:50.506Z,15.58
2022-10-02T02:12:45.773Z,15.70
2022-10-02T02:15:36.458Z,15.62
2022-10-02T02:18:17.071Z,15.65
2022-10-02T02:20:48.035Z,15.63
2022-10-02T02:23:19.965Z,15.65
2022-10-02T02:25:52.650Z,15.66
2022-10-02T02:28:21.728Z,15.67
2022-10-02T02:30:52.059Z,15.67
2022-10-02T02:33:25.521Z,15.71
2022-10-02T02:35:58.498Z,15.71
2022-10-02T02:38:33.309Z,15.71
2022-10-02T02:41:26.093Z,15.77
2022-10-02T02:44:03.861Z,15.74
2022-10-02T02:47:00.861Z,15.73
2022-10-02T02:49:31.835Z,15.70
2022-10-02T02:52:01.540Z,15.66
2022-10-02T02:54:36.553Z,15.70
2022-10-02T02:57:06.346Z,15.62
2022-10-02T02:59:36.167Z,15.63
2022-10-02T03:02:02.668Z,15.62
2022-10-02T03:04:29.246Z,15.61
2022-10-02T03:07:01.499Z,15.63
2022-10-02T03:09:30.534Z,15.62
2022-10-02T03:12:09.653Z,15.67
2022-10-02T03:14:51.021Z,15.64
2022-10-02T03:17:29.670Z,15.60
2022-10-02T03:20:21.355Z,15.65
2022-10-02T03:22:56.842Z,15.64
2022-10-02T03:25:31.947Z,15.62
2022-10-02T03:28:43.427Z,15.77
2022-10-02T03:31:09.672Z,15.64
2022-10-02T03:33:37.410Z,15.65
2022-10-02T03:36:05.447Z,15.69
2022-10-02T03:38:33.869Z,15.67
2022-10-02T03:41:00.301Z,15.69
2022-10-02T03:43:29.283Z,15.75
2022-10-02T03:45:56.708Z,15.74
2022-10-02T03:48:23.608Z,15.78
2022-10-02T03:50:51.056Z,15.82
2022-10-02T03:53:24.451Z,15.87
2022-10-02T03:55:57.903Z,15.93
2022-10-02T03:58:25.674Z,15.92
2022-10-02T04:01:04.735Z,16.01
2022-10-02T04:03:36.877Z,16.02
2022-10-02T04:06:14.497Z,16.08
2022-10-02T04:08:50.744Z,16.11
2022-10-02T04:11:31.784Z,16.13
2022-10-02T04:14:24.540Z,16.23
2022-10-02T04:16:56.204Z,16.18
2022-10-02T04:19:26.504Z,16.17
2022-10-02T04:22:32.384Z,16.31
2022-10-02T04:25:12.553Z,16.24
2022-10-02T04:27:48.092Z,16.24
2022-10-02T04:30:16.868Z,16.23
2022-10-02T04:32:43.600Z,16.22
2022-10-02T04:35:56.869Z,16.40
2022-10-02T04:38:29.252Z,16.29
2022-10-02T04:41:32.888Z,16.44
2022-10-02T04:44:08.501Z,16.33
2022-10-02T04:46:43.922Z,16.35
2022-10-02T04:49:26.535Z,16.43
2022-10-02T04:52:24.247Z,16.46
2022-10-02T04:55:03.140Z,16.40
2022-10-02T04:57:51.233Z,16.46
2022-10-02T05:00:21.806Z,16.32
2022-10-02T05:02:59.804Z,16.42
2022-10-02T05:06:06.233Z,16.44
2022-10-02T05:08:57.419Z,16.41
2022-10-02T05:11:51.888Z,16.41
2022-10-02T05:14:26.830Z,16.39
2022-10-02T05:17:07.353Z,16.36
2022-10-02T05:19:57.219Z,16.40
2022-10-02T05:22:50.085Z,16.45
2022-10-02T05:26:03.507Z,16.55
2022-10-02T05:28:49.764Z,16.43
2022-10-02T05:31:50.299Z,16.50
2022-10-02T05:34:16.665Z,16.39
2022-10-02T05:36:52.505Z,16.49
2022-10-02T05:39:27.710Z,16.45
2022-10-02T05:41:59.228Z,16.45
2022-10-02T05:44:37.423Z,16.41
2022-10-02T05:47:09.974Z,16.46
2022-10-02T05:49:43.332Z,16.43
2022-10-02T05:52:18.709Z,16.47
2022-10-02T05:54:53.306Z,16.41
2022-10-02T05:57:42.482Z,16.55
2022-10-02T06:00:52.099Z,16.62
2022-10-02T06:03:43.802Z,16.56
2022-10-02T06:06:16.734Z,16.47
2022-10-02T06:08:50.876Z,16.48
2022-10-02T06:11:42.171Z,16.62
2022-10-02T06:14:22.322Z,16.63
2022-10-02T06:17:00.900Z,16.68
2022-10-02T06:19:35.102Z,16.73
2022-10-02T06:22:13.566Z,16.82
2022-10-02T06:24:49.241Z,16.85
2022-10-02T06:27:40.668Z,16.93
2022-10-02T06:30:11.129Z,16.96
2022-10-02T06:32:58.635Z,17.03
2022-10-02T06:35:29.018Z,17.08
2022-10-02T06:38:20.036Z,17.10
2022-10-02T06:40:56.183Z,17.12
2022-10-02T06:43:43.383Z,17.18
2022-10-02T06:46:28.075Z,17.15
2022-10-02T06:49:02.123Z,17.14
2022-10-02T06:52:01.095Z,17.25
2022-10-02T06:54:27.479Z,17.12
2022-10-02T06:57:22.513Z,17.24
2022-10-02T07:00:05.826Z,17.28
2022-10-02T07:02:53.662Z,17.24
2022-10-02T07:05:32.351Z,17.34
2022-10-02T07:08:17.760Z,17.41
2022-10-02T07:10:44.167Z,17.36
2022-10-02T07:13:36.772Z,17.53
2022-10-02T07:16:26.086Z,17.62
2022-10-02T07:19:28.796Z,17.68
2022-10-02T07:22:20.515Z,17.71
2022-10-02T07:25:02.494Z,18.00
2022-10-02T07:27:38.193Z,17.88
2022-10-02T07:30:06.200Z,17.85
2022-10-02T07:32:38.444Z,17.92
2022-10-02T07:35:19.637Z,17.93
2022-10-02T07:38:07.722Z,18.05
2022-10-02T07:41:04.441Z,18.04
2022-10-02T07:44:05.552Z,18.09
2022-10-02T07:46:47.252Z,18.05
2022-10-02T07:49:39.241Z,18.13
2022-10-02T07:52:42.781Z,18.10
2022-10-02T07:55:25.928Z,18.06
2022-10-02T07:58:12.538Z,18.15
2022-10-02T08:00:45.405Z,18.10
2022-10-02T08:03:25.863Z,18.16
2022-10-02T08:05:55.468Z,18.15
2022-10-02T08:08:30.917Z,18.20
2022-10-02T08:11:09.306Z,18.22
2022-10-02T08:14:05.493Z,18.31
2022-10-02T08:16:46.628Z,18.24
2022-10-02T08:19:16.807Z,18.22
2022-10-02T08:21:47.985Z,18.23
2022-10-02T08:24:20.422Z,18.21
2022-10-02T08:26:53.650Z,18.20
2022-10-02T08:29:49.391Z,18.40
2022-10-02T08:32:15.809Z,18.28
2022-10-02T08:34:44.150Z,18.34
2022-10-02T08:37:35.417Z,18.48
2022-10-02T08:40:20.150Z,18.57
2022-10-02T08:43:22.931Z,18.65
2022-10-02T08:46:26.190Z,18.77
2022-10-02T08:49:25.679Z,18.89
2022-10-02T08:52:42.053Z,18.94
2022-10-02T08:55:21.857Z,18.94
2022-10-02T08:58:36.086Z,19.14
2022-10-02T09:01:23.897Z,19.20
2022-10-02T09:03:56.430Z,19.20
2022-10-02T09:07:05.314Z,19.40
2022-10-02T09:09:34.736Z,19.32
2022-10-02T09:12:22.319Z,19.40
2022-10-02T09:14:49.811Z,19.63
2022-10-02T09:17:44.753Z,19.44
2022-10-02T09:20:41.309Z,19.45
2022-10-02T09:23:07.739Z,19.38
2022-10-02T09:25:49.213Z,19.46
2022-10-02T09:28:33.961Z,19.46
2022-10-02T09:31:22.822Z,19.56
2022-10-02T09:34:25.643Z,19.64
2022-10-02T09:37:28.480Z,19.74
2022-10-02T09:40:13.707Z,19.76
2022-10-02T09:43:03.313Z,19.69
2022-10-02T09:45:51.511Z,19.79
2022-10-02T09:48:43.241Z,19.85
2022-10-02T09:51:26.271Z,19.95
2022-10-02T09:54:21.536Z,20.10
2022-10-02T09:57:07.046Z,20.13
2022-10-02T09:59:52.079Z,20.23
2022-10-02T10:02:53.663Z,20.31
2022-10-02T10:05:45.630Z,20.25
2022-10-02T10:08:30.828Z,20.32
2022-10-02T10:11:29.374Z,20.31
2022-10-02T10:14:23.327Z,20.33
2022-10-02T10:17:09.321Z,20.28
2022-10-02T10:19:38.950Z,20.28
2022-10-02T10:22:37.384Z,20.36
2022-10-02T10:25:34.407Z,20.48
2022-10-02T10:28:20.249Z,20.54
2022-10-02T10:30:52.830Z,20.58
2022-10-02T10:33:28.306Z,20.68
2022-10-02T10:37:01.992Z,20.79
2022-10-02T10:39:52.636Z,20.82
2022-10-02T10:42:49.980Z,20.94
2022-10-02T10:45:39.409Z,20.99
2022-10-02T10:48:39.186Z,21.05
2022-10-02T10:51:16.982Z,21.01
2022-10-02T10:54:17.754Z,21.22
2022-10-02T10:56:53.631Z,21.24
2022-10-02T10:59:42.598Z,21.34
2022-10-02T11:02:31.607Z,21.38
2022-10-02T11:05:33.226Z,21.42
2022-10-02T11:08:15.014Z,21.45
2022-10-02T11:11:09.493Z,21.36
2022-10-02T11:13:41.870Z,21.21
2022-10-02T11:16:22.571Z,21.19
2022-10-02T11:19:21.769Z,21.11
2022-10-02T11:21:52.679Z,21.03
2022-10-02T11:24:25.299Z,20.90
2022-10-02T11:27:22.092Z,20.94
2022-10-02T11:29:57.470Z,20.90
2022-10-02T11:33:01.186Z,20.94
2022-10-02T11:35:49.082Z,20.97
2022-10-02T11:38:43.593Z,21.02
2022-10-02T11:41:46.807Z,21.21
2022-10-02T11:44:28.246Z,21.21
2022-10-02T11:47:36.262Z,21.26
2022-10-02T11:50:37.359Z,21.37
2022-10-02T11:53:32.215Z,21.28
2022-10-02T11:56:07.995Z,21.25
2022-10-02T11:58:45.348Z,21.22
2022-10-02T12:01:45.404Z,21.31
2022-10-02T12:04:52.427Z,21.40
2022-10-02T12:07:36.203Z,21.52
2022-10-02T12:10:27.574Z,21.71
2022-10-02T12:13:16.001Z,21.81
2022-10-02T12:16:20.311Z,21.99
2022-10-02T12:19:01.819Z,21.99
2022-10-02T12:22:10.074Z,22.00
2022-10-02T12:25:06.947Z,22.04
2022-10-02T12:28:10.597Z,22.10
2022-10-02T12:30:45.417Z,22.01
2022-10-02T12:33:33.511Z,21.95
2022-10-02T12:36:00.013Z,21.80
2022-10-02T12:38:49.954Z,21.83
2022-10-02T12:41:59.160Z,21.68
2022-10-02T12:45:02.631Z,21.55
2022-10-02T12:47:37.043Z,21.28
2022-10-02T12:50:21.895Z,21.15
2022-10-02T12:53:22.856Z,20.95
2022-10-02T12:55:55.620Z,20.79
2022-10-02T12:58:34.185Z,20.66
2022-10-02T13:01:20.134Z,20.39
2022-10-02T13:04:41.129Z,20.36
2022-10-02T13:07:42.645Z,20.19
2022-10-02T13:10:21.640Z,19.96
2022-10-02T13:13:03.010Z,19.78
2022-10-02T13:15:51.040Z,19.72
2022-10-02T13:18:29.277Z,19.50
2022-10-02T13:21:40.700Z,19.61
2022-10-02T13:24:35.157Z,19.50
2022-10-02T13:27:16.657Z,19.38
2022-10-02T13:29:51.162Z,19.25
2022-10-02T13:32:23.501Z,19.19
2022-10-02T13:35:02.104Z,19.24
2022-10-02T13:37:51.757Z,19.28
2022-10-02T13:41:06.101Z,19.29
2022-10-02T13:43:34.609Z,19.09
2022-10-02T13:46:33.982Z,19.17
2022-10-02T13:49:40.112Z,19.19
2022-10-02T13:52:24.729Z,19.12
2022-10-02T13:55:07.812Z,19.07
2022-10-02T13:57:52.957Z,18.96
2022-10-02T14:00:37.709Z,19.06
2022-10-02T14:03:24.183Z,19.00
2022-10-02T14:06:00.334Z,18.94
2022-10-02T14:09:04.372Z,19.08
2022-10-02T14:11:49.410Z,19.11
2022-10-02T14:14:31.226Z,19.17
2022-10-02T14:17:12.366Z,19.16
2022-10-02T14:19:44.689Z,19.15
2022-10-02T14:22:25.261Z,19.22
2022-10-02T14:25:38.270Z,19.49
2022-10-02T14:28:10.931Z,19.49
2022-10-02T14:30:54.091Z,19.51
2022-10-02T14:33:30.002Z,19.50
2022-10-02T14:36:12.776Z,19.56
2022-10-02T14:38:51.315Z,19.58
2022-10-02T14:41:39.496Z,19.63
2022-10-02T14:44:43.886Z,19.66
2022-10-02T14:47:17.319Z,19.58
2022-10-02T14:50:02.170Z,19.58
2022-10-02T14:52:28.648Z,19.46
2022-10-02T14:55:16.239Z,19.80
2022-10-02T14:57:55.011Z,19.53
2022-10-02T15:00:24.545Z,19.39
2022-10-02T15:02:51.057Z,19.36
2022-10-02T15:05:32.511Z,19.69
2022-10-02T15:08:00.223Z,19.37
2022-10-02T15:10:33.201Z,19.33
2022-10-02T15:13:28.510Z,19.39
2022-10-02T15:16:38.031Z,19.44
2022-10-02T15:19:16.975Z,19.35
2022-10-02T15:21:59.232Z,19.36
2022-10-02T15:24:28.008Z,19.28
2022-10-02T15:27:11.763Z,19.30
2022-10-02T15:30:06.201Z,19.30
2022-10-02T15:32:55.310Z,19.30
2022-10-02T15:35:35.758Z,19.28
2022-10-02T15:38:39.119Z,19.35
2022-10-02T15:41:40.141Z,19.27
2022-10-02T15:44:15.982Z,19.20
2022-10-02T15:46:45.617Z,19.17
2022-10-02T15:49:36.840Z,19.18
2022-10-02T15:52:33.250Z,19.13
2022-10-02T15:55:19.945Z,19.13
2022-10-02T15:58:00.838Z,19.07
2022-10-02T16:00:29.894Z,18.93
2022-10-02T16:03:03.312Z,18.93
2022-10-02T16:05:47.808Z,18.84
2022-10-02T16:08:32.595Z,18.87
2022-10-02T16:11:18.999Z,18.79
2022-10-02T16:13:55.935Z,18.75
2022-10-02T16:16:42.772Z,18.68
2022-10-02T16:19:28.527Z,18.79
2022-10-02T16:22:17.748Z,18.60
2022-10-02T16:25:03.981Z,18.65
2022-10-02T16:28:15.599Z,18.67
2022-10-02T16:30:45.299Z,18.53
2022-10-02T16:33:38.176Z,18.52
2022-10-02T16:36:30.358Z,18.55
2022-10-02T16:39:36.082Z,18.53
2022-10-02T16:42:29.183Z,18.44
2022-10-02T16:45:29.020Z,18.48
2022-10-02T16:48:12.288Z,18.35
2022-10-02T16:51:08.652Z,18.33
2022-10-02T16:53:54.836Z,18.31
2022-10-02T16:56:32.472Z,18.22
2022-10-02T16:59:16.332Z,18.18
2022-10-02T17:02:05.861Z,18.11
2022-10-02T17:04:50.241Z,18.02
2022-10-02T17:07:41.696Z,18.11
2022-10-02T17:10:19.375Z,18.02
2022-10-02T17:13:01.508Z,17.97
2022-10-02T17:15:43.917Z,17.93
2022-10-02T17:18:32.920Z,17.91
2022-10-02T17:21:26.521Z,17.88
2022-10-02T17:24:15.633Z,17.86
2022-10-02T17:26:50.533Z,17.69
2022-10-02T17:29:27.963Z,17.66
2022-10-02T17:32:01.630Z,17.59
2022-10-02T17:34:34.637Z,17.56
2022-10-02T17:37:04.821Z,17.46
2022-10-02T17:39:52.159Z,17.42
2022-10-02T17:42:43.872Z,17.47
2022-10-02T17:45:32.470Z,17.50
2022-10-02T17:48:07.832Z,17.38
2022-10-02T17:50:50.033Z,17.32
2022-10-02T17:53:53.760Z,17.35
2022-10-02T17:56:38.861Z,17.33
2022-10-02T17:59:34.464Z,17.23
2022-10-02T18:02:06.971Z,17.14
2022-10-02T18:04:50.455Z,17.12
2022-10-02T18:07:35.827Z,17.02
2022-10-02T18:10:17.615Z,17.08
2022-10-02T18:13:05.596Z,17.00
2022-10-02T18:15:40.942Z,16.99
2022-10-02T18:18:23.087Z,16.95
2022-10-02T18:20:58.564Z,16.93
2022-10-02T18:23:55.991Z,16.98
2022-10-02T18:26:22.424Z,16.83
2022-10-02T18:29:07.314Z,16.80
2022-10-02T18:32:02.016Z,16.85
2022-10-02T18:34:44.292Z,16.81
2022-10-02T18:37:16.659Z,16.72
2022-10-02T18:39:52.480Z,16.71
2022-10-02T18:42:49.364Z,16.83
2022-10-02T18:45:40.354Z,16.80
2022-10-02T18:48:45.854Z,16.81
2022-10-02T18:51:36.998Z,16.64
2022-10-02T18:54:25.148Z,16.75
2022-10-02T18:57:15.272Z,16.75
2022-10-02T18:59:44.876Z,16.62
2022-10-02T19:02:32.212Z,16.64
2022-10-02T19:05:17.330Z,16.68
2022-10-02T19:07:59.216Z,16.60
2022-10-02T19:10:29.802Z,16.50
2022-10-02T19:13:17.766Z,16.49
2022-10-02T19:15:46.539Z,16.47
2022-10-02T19:18:26.548Z,16.49
2022-10-02T19:21:02.951Z,16.48
2022-10-02T19:24:01.398Z,16.46
2022-10-02T19:26:33.285Z,16.41
2022-10-02T19:29:19.936Z,16.41
2022-10-02T19:31:46.764Z,16.32
2022-10-02T19:34:25.033Z,16.37
2022-10-02T19:36:57.158Z,16.31
2022-10-02T19:39:32.109Z,16.32
2022-10-02T19:42:08.080Z,16.30
2022-10-02T19:44:40.422Z,16.27
2022-10-02T19:47:32.406Z,16.36
2022-10-02T19:50:01.526Z,16.22
2022-10-02T19:52:44.451Z,16.29
2022-10-02T19:55:30.290Z,16.27
2022-10-02T19:58:07.874Z,16.23
2022-10-02T20:00:38.655Z,16.15
2022-10-02T20:03:12.536Z,16.16
2022-10-02T20:05:39.958Z,16.11
2022-10-02T20:08:14.713Z,16.16
2022-10-02T20:10:54.553Z,16.14
2022-10-02T20:13:34.841Z,16.13
2022-10-02T20:16:31.575Z,16.10
2022-10-02T20:18:58.186Z,16.04
2022-10-02T20:21:40.367Z,16.11
2022-10-02T20:24:27.970Z,16.06
2022-10-02T20:27:02.291Z,16.06
2022-10-02T21:42:41.908Z,15.41
2022-10-02T21:45:23.915Z,15.31
2022-10-02T21:48:15.437Z,15.35
2022-10-02T21:51:12.936Z,15.30
2022-10-02T21:54:19.096Z,15.35
2022-10-02T21:57:23.191Z,15.30
2022-10-02T22:00:14.577Z,15.24
2022-10-02T22:03:04.378Z,15.26
2022-10-02T22:05:42.368Z,15.14
2022-10-02T22:08:28.830Z,15.13
2022-10-02T22:11:12.365Z,15.16
2022-10-02T22:13:40.932Z,15.08
2022-10-02T22:16:28.875Z,15.13
2022-10-02T22:19:09.461Z,15.11
2022-10-02T22:22:01.901Z,15.21
2022-10-02T22:25:02.476Z,15.15
2022-10-02T22:27:49.280Z,15.07
2022-10-02T22:30:45.843Z,15.15
2022-10-02T22:33:31.861Z,15.10
2022-10-02T22:36:24.101Z,15.07
2022-10-02T22:39:12.324Z,14.98
2022-10-02T22:41:53.529Z,14.93
2022-10-02T22:44:34.114Z,14.90
2022-10-02T22:47:23.686Z,14.88
2022-10-02T22:49:56.785Z,14.82
2022-10-02T22:52:42.854Z,14.86
2022-10-02T22:55:21.582Z,14.84
2022-10-02T22:58:06.266Z,14.82
2022-10-02T23:00:56.549Z,14.87
2022-10-02T23:03:25.924Z,14.79
2022-10-02T23:06:05.042Z,14.74
2022-10-02T23:08:48.185Z,14.80
2022-10-02T23:11:25.417Z,14.81
2022-10-02T23:13:51.793Z,15.08
2022-10-02T23:16:42.911Z,14.93
2022-10-02T23:19:19.946Z,14.80
2022-10-02T23:21:53.701Z,14.82
2022-10-02T23:24:30.387Z,14.81
2022-10-02T23:27:02.759Z,14.80
2022-10-02T23:30:03.743Z,14.87
2022-10-02T23:32:40.258Z,14.81
2022-10-02T23:35:14.787Z,14.80
2022-10-02T23:38:02.779Z,14.86
2022-10-02T23:40:51.430Z,14.75
2022-10-02T23:43:34.795Z,14.82
2022-10-02T23:46:07.122Z,14.76
2022-10-02T23:48:34.082Z,14.73
2022-10-02T23:51:18.647Z,14.78
2022-10-02T23:54:03.263Z,14.71
2022-10-02T23:56:48.463Z,14.82
2022-10-02T23:59:42.253Z,14.87
